Time;durP1;ratioP1;P1;durP2;ratioP2;P2;SDS_P1;SDS_P2;PMS_P1;PMS_P2;Temp;Humidity;BMP_temperature;BMP_pressure;BME280_temperature;BME280_humidity;BME280_pressure;Samples;Min_cycle;Max_cycle;Signal;HPM_P1;HPM_P2
2022/07/22 00:00:23;;;;;;;9.60;4.22;;;;;;;24.78;44.98;99211.78;1748075;81;20984;-37
2022/07/22 00:02:49;;;;;;;12.75;4.85;;;;;;;24.74;45.08;99233.33;1747991;81;20961;-42
2022/07/22 00:05:14;;;;;;;13.28;5.00;;;;;;;24.70;44.92;99237.36;1748066;81;20968;-41
2022/07/22 00:07:40;;;;;;;10.15;4.80;;;;;;;24.58;45.37;99223.50;1748096;81;20945;-38
2022/07/22 00:10:10;;;;;;;12.80;5.03;;;;;;;24.53;45.40;99214.60;1748074;81;20987;-39
2022/07/22 00:12:37;;;;;;;12.85;4.47;;;;;;;24.46;45.86;99219.49;1748067;81;21008;-37
2022/07/22 00:15:05;;;;;;;8.58;4.45;;;;;;;24.45;46.12;99229.90;1748299;81;20995;-39
2022/07/22 00:17:31;;;;;;;7.33;4.15;;;;;;;24.42;46.21;99231.09;1747966;82;20979;-39
2022/07/22 00:19:56;;;;;;;8.25;4.35;;;;;;;24.39;45.99;99215.83;1748147;81;21488;-36
2022/07/22 00:22:22;;;;;;;10.03;4.20;;;;;;;24.34;46.25;99212.34;1748105;81;21484;-37
2022/07/22 00:24:48;;;;;;;13.58;4.83;;;;;;;24.34;46.60;99209.66;1748082;82;21537;-39
2022/07/22 00:27:14;;;;;;;13.53;4.58;;;;;;;24.33;46.71;99209.31;1748088;81;21003;-39
2022/07/22 00:29:40;;;;;;;11.30;4.83;;;;;;;24.28;46.75;99221.09;1748047;82;21036;-36
2022/07/22 00:32:06;;;;;;;9.10;4.10;;;;;;;24.21;47.10;99219.59;1748074;81;21025;-38
2022/07/22 00:34:32;;;;;;;12.55;4.55;;;;;;;24.19;47.00;99222.14;1748336;81;21059;-38
2022/07/22 00:36:58;;;;;;;9.50;4.50;;;;;;;24.14;47.42;99217.30;1748106;82;21469;-39
2022/07/22 00:39:24;;;;;;;8.10;4.80;;;;;;;24.11;47.21;99203.70;1748106;81;21034;-37
2022/07/22 00:41:50;;;;;;;11.22;4.50;;;;;;;24.10;47.24;99202.04;1748130;81;21318;-38
2022/07/22 00:44:16;;;;;;;10.50;4.65;;;;;;;24.09;47.39;99203.55;1748040;81;21473;-38
2022/07/22 00:46:42;;;;;;;10.78;4.60;;;;;;;24.05;47.35;99209.78;1747959;81;20992;-37
2022/07/22 00:49:09;;;;;;;11.03;4.20;;;;;;;24.04;47.38;99197.34;1758262;81;20987;-37
2022/07/22 00:51:37;;;;;;;13.08;4.85;;;;;;;24.00;47.80;99204.08;1761526;81;20993;-38
2022/07/22 00:54:04;;;;;;;11.15;5.22;;;;;;;23.98;47.79;99215.51;1761449;81;20983;-38
2022/07/22 00:56:30;;;;;;;7.47;4.42;;;;;;;23.97;47.75;99200.39;1761587;81;21030;-38
2022/07/22 00:59:01;;;;;;;8.48;4.58;;;;;;;23.94;48.04;99197.56;1761359;81;20988;-36
2022/07/22 01:01:28;;;;;;;10.35;4.28;;;;;;;23.92;48.12;99198.24;1761236;80;21069;-39
2022/07/22 01:03:54;;;;;;;11.68;5.17;;;;;;;23.90;47.95;99196.72;1761463;81;21471;-37
2022/07/22 01:06:20;;;;;;;12.88;4.40;;;;;;;23.89;48.00;99205.80;1761373;81;20994;-38
2022/07/22 01:08:45;;;;;;;9.23;4.78;;;;;;;23.85;48.11;99200.42;1761408;81;21901;-40
2022/07/22 01:11:15;;;;;;;15.83;4.60;;;;;;;23.80;48.17;99197.45;1761388;81;21031;-41
2022/07/22 01:13:42;;;;;;;12.10;5.00;;;;;;;23.77;48.37;99202.09;1761330;81;20986;-37
2022/07/22 01:16:10;;;;;;;11.95;4.55;;;;;;;23.77;48.41;99203.44;1761798;81;20987;-40
2022/07/22 01:18:37;;;;;;;19.15;5.40;;;;;;;23.74;48.51;99198.43;1761386;81;21002;-40
2022/07/22 01:21:05;;;;;;;16.80;4.70;;;;;;;23.73;48.49;99191.38;1761556;81;21485;-38
2022/07/22 01:23:31;;;;;;;16.23;4.75;;;;;;;23.72;48.71;99195.08;1761422;81;20984;-37
2022/07/22 01:25:58;;;;;;;9.20;4.15;;;;;;;23.71;48.57;99192.56;1761582;81;20987;-37
2022/07/22 01:28:25;;;;;;;9.33;4.62;;;;;;;23.67;48.58;99185.36;1761396;81;20995;-39
2022/07/22 01:30:51;;;;;;;13.40;5.05;;;;;;;23.66;48.97;99185.02;1761592;81;20998;-38
2022/07/22 01:33:19;;;;;;;9.10;4.50;;;;;;;23.66;48.63;99181.50;1761557;81;21045;-38
2022/07/22 01:35:45;;;;;;;14.53;4.80;;;;;;;23.63;48.86;99180.01;1761322;81;20963;-39
2022/07/22 01:38:12;;;;;;;12.40;5.00;;;;;;;23.61;49.03;99176.63;1761382;81;20995;-39
2022/07/22 01:40:38;;;;;;;14.20;4.33;;;;;;;23.60;49.31;99176.31;1761663;81;21006;-37
2022/07/22 01:43:04;;;;;;;10.03;3.77;;;;;;;23.58;49.06;99171.63;1761492;81;21027;-39
2022/07/22 01:45:30;;;;;;;12.58;4.78;;;;;;;23.56;49.38;99171.80;1761327;81;21842;-37
2022/07/22 01:47:56;;;;;;;12.15;4.70;;;;;;;23.56;49.22;99175.82;1759179;81;21160;-39
2022/07/22 01:50:22;;;;;;;9.45;4.35;;;;;;;23.53;49.39;99169.95;1748020;81;21140;-39
2022/07/22 01:52:47;;;;;;;11.95;4.70;;;;;;;23.52;49.90;99170.95;1747958;82;20992;-38
2022/07/22 01:55:13;;;;;;;12.43;4.25;;;;;;;23.49;49.79;99178.02;1748101;81;20964;-39
2022/07/22 01:57:39;;;;;;;11.28;4.62;;;;;;;23.46;49.60;99176.50;1747909;82;20991;-38
2022/07/22 02:00:08;;;;;;;11.25;4.78;;;;;;;23.43;49.51;99170.16;1747954;82;21004;-40
2022/07/22 02:02:34;;;;;;;11.40;4.60;;;;;;;23.44;49.68;99168.30;1747935;81;20976;-38
2022/07/22 02:05:00;;;;;;;10.90;4.33;;;;;;;23.39;49.79;99176.84;1748378;81;21000;-37
2022/07/22 02:07:26;;;;;;;8.85;4.67;;;;;;;23.38;50.24;99171.99;1747997;81;21282;-39
2022/07/22 02:09:53;;;;;;;11.22;4.30;;;;;;;23.37;49.94;99168.97;1747884;82;20991;-40
2022/07/22 02:12:19;;;;;;;11.70;4.37;;;;;;;23.37;50.05;99173.50;1737653;82;20988;-39
2022/07/22 02:14:45;;;;;;;6.62;4.45;;;;;;;23.33;49.95;99174.34;1748031;81;21517;-40
2022/07/22 02:17:12;;;;;;;18.02;4.40;;;;;;;23.30;49.97;99186.78;1748288;81;21418;-38
2022/07/22 02:19:38;;;;;;;15.13;5.17;;;;;;;23.27;50.01;99182.25;1748371;81;20998;-38
2022/07/22 02:22:04;;;;;;;10.88;4.58;;;;;;;23.22;50.35;99180.58;1748040;81;21000;-39
2022/07/22 02:24:30;;;;;;;8.38;4.45;;;;;;;23.19;50.37;99179.05;1747928;81;21035;-40
2022/07/22 02:26:55;;;;;;;11.55;4.28;;;;;;;23.18;50.14;99174.71;1747932;81;20948;-40
2022/07/22 02:29:21;;;;;;;14.75;4.97;;;;;;;23.15;50.46;99179.89;1747938;81;21026;-39
2022/07/22 02:31:47;;;;;;;7.95;4.65;;;;;;;23.14;50.25;99183.59;1747994;81;21035;-37
2022/07/22 02:34:14;;;;;;;14.85;5.00;;;;;;;23.12;50.38;99182.07;1748052;81;20991;-40
2022/07/22 02:36:40;;;;;;;9.80;4.05;;;;;;;23.10;50.36;99179.58;1748143;81;20996;-39
2022/07/22 02:39:06;;;;;;;10.40;4.37;;;;;;;23.08;50.52;99190.95;1748163;81;21002;-40
2022/07/22 02:41:32;;;;;;;11.78;4.85;;;;;;;23.06;50.64;99191.63;1720947;78;21145;-41
2022/07/22 02:43:59;;;;;;;8.43;4.28;;;;;;;23.05;50.53;99194.48;1678920;85;21199;-38
2022/07/22 02:46:28;;;;;;;14.25;4.53;;;;;;;23.00;50.70;99202.50;1679284;84;21069;-39
2022/07/22 02:48:55;;;;;;;11.80;5.00;;;;;;;22.96;50.85;99203.02;1679363;85;21014;-41
2022/07/22 02:51:21;;;;;;;16.42;6.10;;;;;;;22.90;50.90;99205.86;1679453;85;20994;-40
2022/07/22 02:53:48;;;;;;;16.30;5.10;;;;;;;22.85;51.11;99200.16;1679447;84;20978;-39
2022/07/22 02:56:14;;;;;;;11.23;5.13;;;;;;;22.84;51.15;99201.14;1679612;85;21021;-38
2022/07/22 02:58:40;;;;;;;15.25;5.03;;;;;;;22.79;51.33;99203.48;1679368;85;20981;-37
2022/07/22 03:01:07;;;;;;;12.70;4.72;;;;;;;22.76;51.33;99201.98;1679342;85;20997;-41
2022/07/22 03:03:32;;;;;;;14.00;5.57;;;;;;;22.73;51.43;99202.81;1679543;85;21049;-39
2022/07/22 03:05:59;;;;;;;14.00;5.72;;;;;;;22.69;51.69;99205.50;1679242;85;21021;-38
2022/07/22 03:08:25;;;;;;;15.30;5.50;;;;;;;22.67;51.58;99212.86;1679591;85;20985;-38
2022/07/22 03:10:53;;;;;;;11.10;5.40;;;;;;;22.62;51.52;99215.52;1679513;84;21551;-41
2022/07/22 03:13:19;;;;;;;12.00;5.65;;;;;;;22.59;51.76;99210.50;1679275;85;21016;-42
2022/07/22 03:15:45;;;;;;;14.05;5.42;;;;;;;22.55;51.88;99212.32;1679293;85;21029;-40
2022/07/22 03:18:10;;;;;;;20.23;6.40;;;;;;;22.50;52.18;99215.48;1679269;85;20981;-40
2022/07/22 03:20:36;;;;;;;39.60;5.95;;;;;;;22.43;52.83;99211.80;1679241;85;21049;-38
2022/07/22 03:23:03;;;;;;;14.68;5.50;;;;;;;22.37;52.67;99204.40;1679210;85;21045;-38
2022/07/22 03:25:30;;;;;;;20.65;5.90;;;;;;;22.36;52.72;99213.45;1679518;84;20993;-40
2022/07/22 03:27:56;;;;;;;17.98;6.03;;;;;;;22.33;53.28;99219.12;1679209;85;21033;-38
2022/07/22 03:30:22;;;;;;;24.85;5.72;;;;;;;22.31;53.18;99217.11;1679329;85;21483;-39
2022/07/22 03:32:48;;;;;;;15.80;6.28;;;;;;;22.27;53.34;99222.47;1679327;85;21021;-38
2022/07/22 03:35:15;;;;;;;14.83;5.95;;;;;;;22.25;53.53;99214.55;1679290;84;21017;-40
2022/07/22 03:37:41;;;;;;;15.72;5.58;;;;;;;22.23;53.68;99225.42;1679390;85;21025;-37
2022/07/22 03:40:09;;;;;;;15.75;6.25;;;;;;;22.23;53.59;99215.22;1679254;85;21017;-41
2022/07/22 03:42:35;;;;;;;21.42;6.55;;;;;;;22.22;53.97;99217.03;1679086;85;21085;-41
2022/07/22 03:45:00;;;;;;;14.47;6.15;;;;;;;22.19;53.95;99222.73;1679276;85;21126;-39
2022/07/22 03:47:26;;;;;;;15.03;6.70;;;;;;;22.21;53.96;99221.21;1679373;85;21049;-38
2022/07/22 03:49:53;;;;;;;16.23;6.92;;;;;;;22.19;54.13;99209.34;1679564;85;21017;-39
2022/07/22 03:52:18;;;;;;;16.82;6.00;;;;;;;22.21;53.93;99210.02;1679405;85;21506;-40
2022/07/22 03:54:45;;;;;;;11.60;6.35;;;;;;;22.18;54.33;99217.03;1679411;85;21009;-38
2022/07/22 03:57:11;;;;;;;16.60;7.15;;;;;;;22.14;54.63;99213.00;1679594;84;21013;-40
2022/07/22 03:59:37;;;;;;;16.23;6.95;;;;;;;22.15;54.50;99212.49;1679598;85;21440;-38
2022/07/22 04:02:04;;;;;;;12.23;6.92;;;;;;;22.12;54.73;99206.97;1679370;85;21009;-40
2022/07/22 04:04:30;;;;;;;14.70;6.90;;;;;;;22.11;54.64;99205.28;1679593;85;21020;-41
2022/07/22 04:06:55;;;;;;;15.38;6.87;;;;;;;22.09;54.91;99210.47;1679419;84;21009;-38
2022/07/22 04:09:22;;;;;;;15.50;7.12;;;;;;;22.08;55.10;99214.97;1679382;85;21013;-40
2022/07/22 04:11:50;;;;;;;18.02;7.10;;;;;;;22.10;54.99;99225.02;1679322;85;20989;-38
2022/07/22 04:14:15;;;;;;;16.50;7.50;;;;;;;22.10;55.18;99225.02;1679318;85;20993;-39
2022/07/22 04:16:41;;;;;;;16.42;8.30;;;;;;;22.09;55.33;99230.05;1679318;85;21053;-37
2022/07/22 04:19:07;;;;;;;16.32;7.42;;;;;;;22.08;55.29;99229.70;1679473;84;21062;-37
2022/07/22 04:21:33;;;;;;;18.85;7.90;;;;;;;22.08;55.63;99226.19;1679356;85;21017;-39
2022/07/22 04:23:58;;;;;;;13.13;7.50;;;;;;;22.09;55.93;99234.06;1679434;84;21482;-39
2022/07/22 04:26:24;;;;;;;15.45;8.23;;;;;;;22.08;56.16;99233.71;1679317;84;21025;-38
2022/07/22 04:28:50;;;;;;;17.82;7.95;;;;;;;22.06;56.21;99235.72;1679358;84;21017;-39
2022/07/22 04:31:15;;;;;;;14.73;8.28;;;;;;;22.06;56.11;99231.70;1679373;85;21045;-39
2022/07/22 04:33:41;;;;;;;16.40;7.90;;;;;;;22.04;56.41;99239.05;1679399;84;21017;-38
2022/07/22 04:36:07;;;;;;;12.90;7.37;;;;;;;22.01;56.54;99242.91;1679391;84;21017;-39
2022/07/22 04:38:33;;;;;;;21.67;8.70;;;;;;;22.02;56.32;99235.20;1679592;85;20989;-37
2022/07/22 04:40:59;;;;;;;13.10;8.33;;;;;;;22.00;56.77;99231.84;1679386;85;21020;-38
2022/07/22 04:43:25;;;;;;;14.65;8.28;;;;;;;22.01;56.93;99234.02;1685363;85;21037;-39
2022/07/22 04:45:51;;;;;;;13.85;7.97;;;;;;;22.02;56.79;99232.52;1657638;85;21025;-40
2022/07/22 04:48:17;;;;;;;14.87;8.05;;;;;;;22.06;56.90;99242.41;1686693;85;21056;-39
2022/07/22 04:50:43;;;;;;;19.77;8.85;;;;;;;22.09;57.22;99249.30;1682698;85;21060;-38
2022/07/22 04:53:09;;;;;;;20.25;8.25;;;;;;;22.09;57.97;99242.61;1677384;85;21493;-40
2022/07/22 04:55:36;;;;;;;18.95;8.23;;;;;;;22.17;57.76;99249.33;1677441;85;21049;-40
2022/07/22 04:58:01;;;;;;;14.83;8.25;;;;;;;22.22;57.52;99253.20;1677482;84;21038;-38
2022/07/22 05:00:27;;;;;;;22.30;9.55;;;;;;;22.24;58.08;99266.44;1677451;85;21053;-39
2022/07/22 05:02:54;;;;;;;13.55;7.83;;;;;;;22.27;58.43;99272.02;1677443;84;21506;-39
2022/07/22 05:05:21;;;;;;;17.10;8.87;;;;;;;22.23;59.36;99274.98;1677787;84;21045;-38
2022/07/22 05:07:47;;;;;;;19.62;8.35;;;;;;;22.29;58.04;99274.03;1677546;85;21510;-39
2022/07/22 05:10:13;;;;;;;21.65;8.33;;;;;;;22.30;58.14;99277.03;1677526;85;21002;-38
2022/07/22 05:12:38;;;;;;;20.20;8.05;;;;;;;22.34;58.43;99275.23;1677457;85;20998;-38
2022/07/22 05:15:05;;;;;;;21.52;8.43;;;;;;;22.33;58.68;99276.72;1677399;85;21017;-38
2022/07/22 05:17:31;;;;;;;14.50;8.78;;;;;;;22.37;58.71;99288.28;1677522;84;21009;-37
2022/07/22 05:19:57;;;;;;;17.67;9.05;;;;;;;22.38;59.12;99301.20;1677507;84;21577;-39
2022/07/22 05:22:22;;;;;;;18.82;8.73;;;;;;;22.36;59.37;99308.05;1677347;85;21501;-38
2022/07/22 05:24:48;;;;;;;24.18;9.63;;;;;;;22.35;60.09;99302.84;1677455;84;21531;-38
2022/07/22 05:27:14;;;;;;;16.77;9.58;;;;;;;22.40;59.21;99296.52;1677452;85;21502;-40
2022/07/22 05:29:40;;;;;;;19.85;9.63;;;;;;;22.43;60.25;99297.54;1677452;85;21017;-40
2022/07/22 05:32:06;;;;;;;18.80;9.25;;;;;;;22.43;59.96;99301.05;1677397;85;20981;-38
2022/07/22 05:34:31;;;;;;;17.87;9.58;;;;;;;22.48;59.86;99285.81;1677395;84;21475;-40
2022/07/22 05:36:57;;;;;;;17.82;9.55;;;;;;;22.56;59.69;99296.58;1677366;84;21053;-41
2022/07/22 05:39:23;;;;;;;18.37;9.70;;;;;;;22.61;60.24;99289.38;1677347;84;21017;-40
2022/07/22 05:41:49;;;;;;;17.80;9.65;;;;;;;22.69;59.95;99285.91;1677440;85;20990;-41
2022/07/22 05:44:14;;;;;;;19.87;9.58;;;;;;;22.77;59.87;99291.27;1679383;85;21503;-40
2022/07/22 05:46:40;;;;;;;19.25;10.13;;;;;;;22.84;60.01;99284.25;1679379;84;20994;-39
2022/07/22 05:49:07;;;;;;;19.57;9.18;;;;;;;22.91;59.71;99287.13;1679300;85;21013;-41
2022/07/22 05:51:34;;;;;;;17.42;9.58;;;;;;;22.97;59.61;99278.42;1679434;85;21045;-38
2022/07/22 05:54:02;;;;;;;14.98;9.45;;;;;;;23.04;59.73;99279.47;1679483;85;21602;-39
2022/07/22 05:56:28;;;;;;;17.25;9.98;;;;;;;23.10;59.52;99280.64;1679297;85;20993;-40
2022/07/22 05:58:55;;;;;;;24.83;9.87;;;;;;;23.17;59.44;99278.47;1679627;85;21006;-38
2022/07/22 06:01:22;;;;;;;19.57;10.85;;;;;;;23.17;59.44;99278.47;1679645;85;21534;-41
2022/07/22 06:03:48;;;;;;;16.75;9.55;;;;;;;23.23;59.52;99275.65;1679568;84;21017;-40
2022/07/22 06:06:14;;;;;;;16.82;9.63;;;;;;;23.27;59.15;99272.95;1679329;84;21352;-40
2022/07/22 06:08:40;;;;;;;17.80;10.15;;;;;;;23.33;59.06;99265.57;1679350;85;21029;-40
2022/07/22 06:11:06;;;;;;;17.95;9.98;;;;;;;23.36;59.04;99263.91;1679318;84;21013;-39
2022/07/22 06:13:33;;;;;;;19.05;9.83;;;;;;;23.40;59.42;99267.09;1679334;85;21017;-40
2022/07/22 06:15:59;;;;;;;16.30;9.48;;;;;;;23.45;59.25;99267.91;1679618;85;21604;-41
2022/07/22 06:18:25;;;;;;;17.45;9.88;;;;;;;23.56;58.91;99268.94;1679381;85;21034;-37
2022/07/22 06:20:51;;;;;;;20.75;10.15;;;;;;;23.56;59.09;99264.39;1666555;84;20983;-38
2022/07/22 06:23:16;;;;;;;15.45;9.55;;;;;;;23.66;58.88;99266.89;1662587;85;20983;-38
2022/07/22 06:25:43;;;;;;;16.42;9.28;;;;;;;23.76;58.74;99264.88;1662510;86;21055;-37
2022/07/22 06:28:10;;;;;;;22.95;10.32;;;;;;;23.87;58.68;99256.17;1663095;85;20982;-40
2022/07/22 06:30:36;;;;;;;23.70;10.08;;;;;;;23.97;58.50;99254.11;1668228;85;20974;-39
2022/07/22 06:33:01;;;;;;;16.52;9.35;;;;;;;24.08;58.19;99256.42;1679283;85;21021;-41
2022/07/22 06:35:28;;;;;;;17.87;9.75;;;;;;;24.19;57.89;99264.61;1679255;84;21025;-40
2022/07/22 06:37:54;;;;;;;21.40;8.93;;;;;;;24.24;57.88;99262.77;1679264;85;21009;-38
2022/07/22 06:40:20;;;;;;;14.43;9.20;;;;;;;24.35;57.46;99255.66;1679261;85;20974;-42
2022/07/22 06:42:46;;;;;;;14.98;9.23;;;;;;;24.45;57.17;99260.81;1679139;85;21101;-38
2022/07/22 06:45:12;;;;;;;18.67;9.10;;;;;;;24.49;56.88;99260.81;1684631;85;20976;-37
2022/07/22 06:47:37;;;;;;;18.77;9.83;;;;;;;24.53;56.76;99257.61;1691351;84;20965;-40
2022/07/22 06:50:09;;;;;;;14.85;9.03;;;;;;;24.63;56.67;99257.90;1691301;85;21123;-39
2022/07/22 06:52:40;;;;;;;15.88;8.85;;;;;;;24.71;56.47;99258.70;1691431;84;20977;-39
2022/07/22 06:55:08;;;;;;;14.30;8.43;;;;;;;24.80;56.26;99253.28;1691441;84;21500;-40
2022/07/22 06:57:34;;;;;;;12.47;8.20;;;;;;;24.88;55.89;99246.49;1691396;83;21007;-39
2022/07/22 07:00:00;;;;;;;16.23;8.55;;;;;;;24.93;55.83;99241.94;1674021;84;21452;-40
2022/07/22 07:02:25;;;;;;;18.02;8.13;;;;;;;24.97;55.50;99237.86;1662494;86;21464;-38
2022/07/22 07:04:51;;;;;;;14.65;7.83;;;;;;;25.01;55.35;99230.62;1662563;85;21468;-40
2022/07/22 07:07:17;;;;;;;17.73;7.22;;;;;;;25.08;55.06;99230.71;1663001;85;21447;-38
2022/07/22 07:09:43;;;;;;;13.32;7.58;;;;;;;25.12;54.72;99232.53;1662653;86;21519;-40
2022/07/22 07:12:09;;;;;;;12.43;7.33;;;;;;;25.14;54.72;99227.80;1662595;86;21010;-39
2022/07/22 07:14:34;;;;;;;8.73;7.15;;;;;;;25.17;54.51;99241.73;1662555;86;21023;-41
2022/07/22 07:17:00;;;;;;;11.97;7.50;;;;;;;25.22;54.25;99238.00;1662551;86;21030;-38
2022/07/22 07:19:26;;;;;;;7.12;6.12;;;;;;;25.23;54.04;99245.08;1662553;86;20998;-39
2022/07/22 07:21:52;;;;;;;10.18;6.72;;;;;;;25.27;53.65;99243.72;1662706;86;20967;-40
2022/07/22 07:24:17;;;;;;;19.20;7.67;;;;;;;25.32;53.42;99240.98;1662641;86;21007;-36
2022/07/22 07:26:43;;;;;;;12.60;6.87;;;;;;;25.40;53.52;99242.27;1662686;86;21046;-40
2022/07/22 07:29:09;;;;;;;9.05;7.03;;;;;;;25.47;53.21;99240.01;1662697;86;20991;-39
2022/07/22 07:31:35;;;;;;;14.68;7.62;;;;;;;25.54;52.96;99250.03;1662701;85;20995;-40
2022/07/22 07:34:00;;;;;;;16.80;7.45;;;;;;;25.58;52.61;99256.75;1662632;86;21009;-38
2022/07/22 07:36:26;;;;;;;12.37;7.00;;;;;;;25.65;52.51;99249.62;1662725;86;21038;-39
2022/07/22 07:38:52;;;;;;;12.00;7.08;;;;;;;25.71;52.25;99254.26;1662748;86;21006;-36
2022/07/22 07:41:18;;;;;;;14.07;6.45;;;;;;;25.79;51.58;99265.45;1662740;86;21010;-40
2022/07/22 07:43:44;;;;;;;9.50;6.50;;;;;;;25.82;51.21;99259.70;1662884;85;21031;-39
2022/07/22 07:46:10;;;;;;;10.65;6.10;;;;;;;25.91;50.66;99259.95;1662653;86;20994;-40
2022/07/22 07:48:36;;;;;;;12.82;6.22;;;;;;;26.00;50.32;99266.95;1662629;86;20999;-39
2022/07/22 07:51:02;;;;;;;14.60;6.12;;;;;;;25.99;49.78;99274.69;1662664;86;21882;-38
2022/07/22 07:53:28;;;;;;;12.13;6.53;;;;;;;26.03;49.55;99280.55;1667893;85;20945;-39
2022/07/22 07:55:54;;;;;;;8.40;6.05;;;;;;;26.10;49.31;99273.91;1691622;84;21003;-39
2022/07/22 07:58:20;;;;;;;10.45;6.22;;;;;;;26.20;49.31;99278.53;1691449;83;21003;-38
2022/07/22 08:00:46;;;;;;;12.18;7.12;;;;;;;26.27;49.20;99276.76;1691407;84;21000;-38
2022/07/22 08:03:12;;;;;;;11.65;6.72;;;;;;;26.33;49.09;99281.39;1691348;84;21012;-39
2022/07/22 08:05:41;;;;;;;14.65;6.95;;;;;;;26.39;49.05;99275.23;1691502;84;21007;-37
2022/07/22 08:08:07;;;;;;;9.40;6.12;;;;;;;26.47;48.91;99279.72;1691429;84;21048;-38
2022/07/22 08:10:33;;;;;;;8.95;6.12;;;;;;;26.57;48.80;99280.76;1691536;84;20996;-40
2022/07/22 08:13:00;;;;;;;12.30;6.03;;;;;;;26.59;48.81;99274.14;1691725;84;21623;-39
2022/07/22 08:15:28;;;;;;;7.97;5.93;;;;;;;26.66;48.39;99268.86;1685213;84;20967;-38
2022/07/22 08:17:55;;;;;;;7.78;5.75;;;;;;;26.76;47.75;99269.41;1714339;83;21091;-37
2022/07/22 08:20:21;;;;;;;10.50;5.83;;;;;;;26.73;46.65;99268.42;1720839;83;21489;-39
2022/07/22 08:22:47;;;;;;;11.25;5.60;;;;;;;26.86;46.96;99267.73;1721132;83;21001;-39
2022/07/22 08:25:13;;;;;;;12.00;5.80;;;;;;;26.96;46.63;99262.88;1741737;81;20983;-40
2022/07/22 08:27:39;;;;;;;14.70;5.95;;;;;;;27.07;46.09;99257.98;1728474;82;21021;-39
2022/07/22 08:30:07;;;;;;;10.80;5.97;;;;;;;27.19;45.47;99265.89;1711163;83;21009;-40
2022/07/22 08:32:34;;;;;;;12.58;6.12;;;;;;;27.29;45.93;99258.87;1710074;81;21064;-38
2022/07/22 08:35:00;;;;;;;7.50;5.50;;;;;;;27.42;45.50;99263.55;1753533;81;21148;-38
2022/07/22 08:37:27;;;;;;;17.60;6.22;;;;;;;27.58;45.21;99261.39;1719853;81;21031;-39
2022/07/22 08:39:53;;;;;;;13.08;6.30;;;;;;;27.70;45.00;99255.44;1707285;82;21474;-39
2022/07/22 08:42:22;;;;;;;11.30;6.60;;;;;;;27.86;44.97;99254.31;1716924;82;20988;-38
2022/07/22 08:44:48;;;;;;;12.35;5.90;;;;;;;27.95;44.12;99264.78;1711280;81;21511;-38
2022/07/22 08:47:15;;;;;;;10.13;6.20;;;;;;;28.19;43.99;99264.52;1699049;84;21005;-39
2022/07/22 08:49:40;;;;;;;10.37;5.60;;;;;;;28.37;43.83;99264.81;1699078;84;21005;-41
2022/07/22 08:52:06;;;;;;;7.08;5.55;;;;;;;28.51;42.99;99263.01;1695369;83;21023;-40
2022/07/22 08:54:32;;;;;;;6.20;5.60;;;;;;;28.66;42.17;99261.52;1687858;83;20971;-40
2022/07/22 08:56:58;;;;;;;8.28;5.42;;;;;;;28.71;42.11;99271.23;1685658;84;21019;-38
2022/07/22 08:59:25;;;;;;;11.65;6.25;;;;;;;28.82;42.24;99267.09;1681592;85;21063;-38
2022/07/22 09:02:10;;;;;;;14.78;5.45;;;;;;;28.92;41.79;99262.11;1694532;83;20990;-40
2022/07/22 09:04:58;;;;;;;8.68;6.08;;;;;;;29.08;41.63;99266.31;1705285;83;20947;-39
2022/07/22 09:07:34;;;;;;;11.28;6.60;;;;;;;29.17;41.65;99268.34;1716144;83;20991;-41
2022/07/22 09:10:01;;;;;;;8.73;6.03;;;;;;;29.44;41.15;99260.55;1700013;83;21457;-37
2022/07/22 09:12:32;;;;;;;;;;;;;;;29.68;41.32;99267.72;1689364;83;21704;-41
2022/07/22 09:15:00;;;;;;;6.78;6.00;;;;;;;29.86;39.97;99266.58;1687798;84;20141;-37
2022/07/22 09:17:35;;;;;;;8.48;5.15;;;;;;;30.03;39.99;99271.55;1686391;85;21468;-38
2022/07/22 09:20:01;;;;;;;10.03;5.65;;;;;;;30.19;40.00;99271.09;1686523;85;21035;-40
2022/07/22 09:22:40;;;;;;;15.70;5.87;;;;;;;30.41;39.03;99277.63;1709096;83;21539;-41
2022/07/22 09:25:29;;;;;;;16.37;5.80;;;;;;;30.60;39.31;99275.91;1707706;83;21042;-40
2022/07/22 09:28:09;;;;;;;9.90;5.20;;;;;;;30.92;38.26;99278.68;1689858;84;20985;-43
2022/07/22 09:30:39;;;;;;;6.65;5.10;;;;;;;31.02;37.28;99277.69;1710885;83;20931;-42
2022/07/22 09:33:07;;;;;;;6.08;4.55;;;;;;;31.12;36.50;99285.34;1701069;83;21490;-39
2022/07/22 09:35:33;;;;;;;11.75;5.45;;;;;;;31.27;35.24;99280.45;1698730;84;21092;-40
2022/07/22 09:38:02;;;;;;;9.30;4.80;;;;;;;31.51;35.62;99283.44;1698806;84;21006;-41
2022/07/22 09:40:32;;;;;;;9.88;4.87;;;;;;;31.82;35.19;99293.91;1698909;84;21061;-38
2022/07/22 09:43:12;;;;;;;8.03;5.58;;;;;;;32.13;33.27;99293.02;1691063;83;21022;-44
2022/07/22 09:45:53;;;;;;;8.23;5.58;;;;;;;32.66;34.44;99289.70;1682884;84;21571;-45
2022/07/22 09:48:21;;;;;;;9.65;5.10;;;;;;;33.71;33.93;99283.98;1702699;84;21030;-41
2022/07/22 09:50:49;;;;;;;5.60;5.00;;;;;;;33.71;33.93;99283.98;1690522;83;21007;-39
2022/07/22 09:53:18;;;;;;;6.58;4.83;;;;;;;34.14;32.64;99299.16;1706402;83;20991;-41
2022/07/22 09:55:43;;;;;;;5.75;4.67;;;;;;;34.42;32.38;99289.72;1698104;83;20967;-41
2022/07/22 09:58:11;;;;;;;9.45;4.90;;;;;;;34.66;32.29;99292.37;1716291;83;21010;-38
2022/07/22 10:00:38;;;;;;;7.60;4.65;;;;;;;34.88;32.07;99293.10;1699557;83;21021;-40
2022/07/22 10:03:08;;;;;;;4.90;4.50;;;;;;;35.17;31.15;99289.26;1697696;84;21001;-41
2022/07/22 10:05:39;;;;;;;7.58;4.92;;;;;;;35.65;30.64;99288.44;1715935;82;21059;-43
2022/07/22 10:08:07;;;;;;;6.17;4.47;;;;;;;35.72;30.10;99282.83;1715689;83;20987;-41
2022/07/22 10:10:35;;;;;;;5.05;4.35;;;;;;;35.81;28.12;99286.80;1715976;83;21038;-35
2022/07/22 10:13:04;;;;;;;5.85;4.10;;;;;;;35.76;27.45;99286.72;1694921;83;20951;-40
2022/07/22 10:15:33;;;;;;;9.73;4.37;;;;;;;35.97;28.19;99297.44;1681469;85;21175;-39
2022/07/22 10:18:04;;;;;;;5.97;3.98;;;;;;;36.04;28.32;99293.98;1681160;85;21491;-39
2022/07/22 10:20:32;;;;;;;7.67;4.30;;;;;;;36.10;27.80;99301.72;1681296;85;21381;-41
2022/07/22 10:23:06;;;;;;;6.60;4.10;;;;;;;36.00;27.87;99296.91;1681149;85;21026;-43
2022/07/22 10:25:56;;;;;;;7.37;4.50;;;;;;;35.50;28.18;99294.49;1698044;83;20994;-41
2022/07/22 10:28:37;;;;;;;7.15;4.37;;;;;;;35.01;28.54;99298.26;1713031;84;21167;-40
2022/07/22 10:31:22;;;;;;;7.75;4.75;;;;;;;34.81;28.73;99294.61;1712904;84;20971;-36
2022/07/22 10:33:55;;;;;;;5.92;4.65;;;;;;;34.73;29.29;99295.83;1694054;83;21010;-39
2022/07/22 10:36:33;;;;;;;6.95;4.10;;;;;;;35.21;29.08;99298.38;1716049;83;21026;-39
2022/07/22 10:39:12;;;;;;;5.50;4.12;;;;;;;35.73;28.84;99287.23;1715503;83;21559;-39
2022/07/22 10:41:44;;;;;;;6.80;4.37;;;;;;;36.47;28.22;99279.23;1715790;83;20998;-41
2022/07/22 10:44:11;;;;;;;8.60;4.60;;;;;;;36.61;25.97;99284.60;1733077;82;21007;-40
2022/07/22 10:46:58;;;;;;;10.45;4.70;;;;;;;36.95;26.98;99280.35;1753697;81;21007;-37
2022/07/22 10:49:24;;;;;;;;;;;;;;;37.35;26.30;99276.36;1738347;81;20997;-40
2022/07/22 10:52:16;;;;;;;5.67;4.28;;;;;;;37.58;25.20;99275.70;1710475;83;20133;-40
2022/07/22 10:55:20;;;;;;;6.60;4.53;;;;;;;38.14;25.47;99271.17;1713701;81;21119;-42
2022/07/22 10:57:46;;;;;;;4.45;4.03;;;;;;;38.66;25.17;99281.83;1728402;81;20977;-38
2022/07/22 11:00:13;;;;;;;11.97;5.00;;;;;;;38.90;24.87;99280.26;1720907;83;21461;-39
2022/07/22 11:02:39;;;;;;;5.58;4.78;;;;;;;38.59;23.63;99281.55;1721008;83;21008;-40
2022/07/22 11:05:06;;;;;;;10.78;4.72;;;;;;;38.02;24.96;99272.72;1720415;83;21005;-40
2022/07/22 11:07:42;;;;;;;5.03;4.47;;;;;;;37.50;25.08;99277.02;1719395;83;20977;-39
2022/07/22 11:10:10;;;;;;;;;;;;;;;37.03;25.61;99269.45;1713122;81;20991;-41
2022/07/22 11:12:36;;;;;;;5.60;4.65;;;;;;;36.57;26.00;99271.14;1725125;81;20174;-43
2022/07/22 11:15:06;;;;;;;5.05;4.55;;;;;;;37.39;26.13;99270.63;1753905;82;21487;-42
2022/07/22 11:17:34;;;;;;;6.78;4.37;;;;;;;37.92;25.18;99265.81;1753710;82;21390;-37
2022/07/22 11:20:00;;;;;;;6.75;4.87;;;;;;;38.09;24.86;99265.09;1753844;82;20983;-40
2022/07/22 11:22:27;;;;;;;4.72;4.28;;;;;;;37.74;25.02;99268.45;1729204;81;21085;-36
2022/07/22 11:24:53;;;;;;;6.70;4.40;;;;;;;37.07;25.40;99272.77;1716865;82;20991;-38
2022/07/22 11:27:21;;;;;;;;;;;;;;;36.99;25.96;99270.52;1719268;83;21071;-38
2022/07/22 11:29:50;;;;;;;9.83;3.80;;;;;;;37.04;25.44;99269.20;1714909;83;20110;-38